Time;durP1;ratioP1;P1;durP2;ratioP2;P2;SDS_P1;SDS_P2;PMS_P1;PMS_P2;Temp;Humidity;BMP_temperature;BMP_pressure;BME280_temperature;BME280_humidity;BME280_pressure;Samples;Min_cycle;Max_cycle;Signal;HPM_P1;HPM_P2
2022/06/25 00:02:01;;;;;;;7.40;4.67;;;;;;;17.28;90.02;100705.97;5013306;28;20038;-82
2022/06/25 00:07:10;;;;;;;5.32;4.10;;;;;;;17.26;89.59;100708.16;5017209;28;20440;-83
2022/06/25 00:09:35;;;;;;;6.03;3.60;;;;;;;17.26;89.20;100718.25;5010078;28;20026;-83
2022/06/25 00:14:45;;;;;;;6.00;3.80;;;;;;;17.30;88.50;100720.22;5006945;28;20121;-82
2022/06/25 00:17:11;;;;;;;4.73;3.40;;;;;;;17.32;87.90;100718.03;5005629;28;20124;-84
2022/06/25 00:19:36;;;;;;;4.60;3.23;;;;;;;17.36;87.58;100719.19;4999031;28;20030;-83
2022/06/25 00:22:02;;;;;;;4.60;2.90;;;;;;;17.40;87.00;100721.41;5010065;28;20061;-83
2022/06/25 00:24:27;;;;;;;4.37;2.93;;;;;;;17.36;86.89;100721.09;5016815;28;20054;-83
2022/06/25 00:26:52;;;;;;;4.10;2.90;;;;;;;17.42;86.39;100728.28;5014604;28;20466;-83
2022/06/25 00:29:18;;;;;;;7.13;3.20;;;;;;;17.43;86.48;100718.16;5012243;28;20026;-82
2022/06/25 00:31:43;;;;;;;3.93;2.90;;;;;;;17.42;86.07;100721.97;5002937;28;20030;-84
2022/06/25 00:34:09;;;;;;;4.57;2.90;;;;;;;17.44;85.92;100731.56;5012606;28;20029;-83
2022/06/25 00:36:34;;;;;;;4.10;3.00;;;;;;;17.33;85.95;100705.19;5001211;28;20030;-83
2022/06/25 00:39:00;;;;;;;5.47;3.10;;;;;;;17.43;85.90;100720.88;5028493;28;20044;-84
2022/06/25 00:41:25;;;;;;;5.90;3.43;;;;;;;17.47;85.78;100725.56;5012776;28;20080;-83
2022/06/25 00:43:51;;;;;;;5.07;3.43;;;;;;;17.45;85.50;100719.53;5014726;28;20073;-84
2022/06/25 00:46:16;;;;;;;5.47;3.53;;;;;;;17.46;85.57;100723.09;5013785;28;20026;-83
2022/06/25 00:48:42;;;;;;;6.83;3.60;;;;;;;17.45;85.69;100724.16;5015361;28;20041;-84
2022/06/25 00:51:13;;;;;;;7.17;3.50;;;;;;;17.47;85.56;100728.31;5014832;28;20040;-83
2022/06/25 00:53:44;;;;;;;6.50;3.87;;;;;;;17.41;86.01;100714.81;5016080;28;20069;-83
2022/06/25 00:56:11;;;;;;;6.40;4.07;;;;;;;17.41;86.02;100728.53;5009833;28;20076;-83
2022/06/25 00:58:39;;;;;;;10.00;3.50;;;;;;;17.40;85.96;100732.38;5014316;28;20018;-83
2022/06/25 01:01:08;;;;;;;8.17;3.83;;;;;;;17.31;86.43;100716.41;5016462;28;20401;-84
2022/06/25 01:03:34;;;;;;;6.60;3.47;;;;;;;17.33;85.80;100725.19;5014707;28;20450;-83
2022/06/25 01:05:59;;;;;;;9.57;4.00;;;;;;;17.36;85.76;100743.81;5015405;28;20124;-84
2022/06/25 01:08:25;;;;;;;7.93;4.23;;;;;;;17.30;86.07;100728.44;5007281;28;20530;-83
2022/06/25 01:10:50;;;;;;;6.93;3.83;;;;;;;17.29;85.93;100743.22;5015352;28;20036;-83
2022/06/25 01:13:21;;;;;;;7.70;3.97;;;;;;;17.29;86.30;100740.47;5015740;28;20029;-83
2022/06/25 01:15:47;;;;;;;6.50;3.60;;;;;;;17.29;86.25;100750.63;5015416;28;20022;-83
2022/06/25 01:18:12;;;;;;;5.90;3.17;;;;;;;17.29;85.87;100750.63;5004548;28;20034;-83
2022/06/25 01:20:38;;;;;;;4.83;3.30;;;;;;;17.23;86.06;100741.53;5011561;28;20394;-83
2022/06/25 01:23:03;;;;;;;7.60;3.67;;;;;;;17.21;86.42;100760.94;5015038;28;20045;-83
2022/06/25 01:25:36;;;;;;;5.47;3.20;;;;;;;17.20;86.68;100758.44;5014236;28;20034;-83
2022/06/25 01:28:03;;;;;;;6.77;3.60;;;;;;;17.19;86.25;100762.31;5016179;28;20044;-83
2022/06/25 01:30:28;;;;;;;6.37;3.60;;;;;;;17.14;86.29;100749.38;5010907;28;20026;-83
2022/06/25 01:32:54;;;;;;;4.53;3.33;;;;;;;17.16;86.41;100766.38;5014201;28;20036;-83
2022/06/25 01:35:19;;;;;;;5.90;3.70;;;;;;;17.13;86.51;100766.06;5015387;28;20030;-83
2022/06/25 01:37:45;;;;;;;6.37;3.60;;;;;;;17.10;86.24;100769.31;5015706;28;20030;-83
2022/06/25 01:40:11;;;;;;;6.07;3.67;;;;;;;17.00;86.62;100759.09;5013739;28;20037;-83
2022/06/25 01:45:20;;;;;;;8.23;4.30;;;;;;;17.01;86.31;100767.03;5014687;28;20092;-83
2022/06/25 01:47:45;;;;;;;8.97;4.37;;;;;;;16.95;86.88;100767.25;5012103;28;20033;-83
2022/06/25 01:50:11;;;;;;;8.83;4.80;;;;;;;16.98;86.85;100773.00;5012893;28;20026;-84
2022/06/25 01:52:38;;;;;;;9.27;4.67;;;;;;;16.93;87.53;100775.72;5009485;28;20026;-83
2022/06/25 01:55:04;;;;;;;6.47;4.00;;;;;;;16.88;87.25;100772.88;5014180;28;20454;-84
2022/06/25 01:57:29;;;;;;;6.87;3.97;;;;;;;16.92;86.75;100790.47;4997099;28;20064;-83
2022/06/25 01:59:54;;;;;;;9.10;4.07;;;;;;;16.92;86.84;100789.63;4988852;28;20030;-84
2022/06/25 02:02:20;;;;;;;6.20;3.80;;;;;;;16.86;86.59;100785.97;5014733;28;20040;-84
2022/06/25 02:04:45;;;;;;;7.03;3.70;;;;;;;16.84;86.80;100791.69;5012244;28;20446;-83
2022/06/25 02:07:10;;;;;;;6.30;4.30;;;;;;;16.84;87.09;100802.66;4995116;28;20053;-83
2022/06/25 02:09:36;;;;;;;6.57;4.10;;;;;;;16.82;87.23;100812.19;5010190;28;20032;-83
2022/06/25 02:12:03;;;;;;;7.13;3.77;;;;;;;16.86;86.38;100802.38;5013698;28;20454;-82
2022/06/25 02:14:29;;;;;;;6.77;4.00;;;;;;;16.83;85.91;100802.91;5014317;28;20041;-84
2022/06/25 02:16:55;;;;;;;6.43;3.90;;;;;;;16.84;86.33;100810.84;5015210;28;20026;-84
2022/06/25 02:19:20;;;;;;;6.17;3.90;;;;;;;16.81;86.20;100814.09;5010531;28;20026;-83
2022/06/25 02:21:46;;;;;;;7.33;4.10;;;;;;;16.74;86.42;100809.91;5007525;28;20034;-83
2022/06/25 02:24:11;;;;;;;11.30;5.03;;;;;;;16.69;86.54;100814.22;5004777;28;20050;-83
2022/06/25 02:26:36;;;;;;;12.93;4.93;;;;;;;16.71;86.83;100823.03;5013696;28;20034;-82
2022/06/25 02:29:02;;;;;;;8.67;4.27;;;;;;;16.68;86.64;100823.50;5012500;28;20058;-83
2022/06/25 02:31:28;;;;;;;8.17;4.50;;;;;;;16.70;86.04;100826.81;5010901;28;20038;-83
2022/06/25 02:33:53;;;;;;;9.53;4.40;;;;;;;16.67;86.04;100831.97;5014450;28;20088;-83
2022/06/25 02:36:19;;;;;;;5.43;3.83;;;;;;;16.63;86.04;100830.81;5012981;28;20117;-84
2022/06/25 02:38:44;;;;;;;6.60;3.77;;;;;;;16.65;85.88;100837.69;5013810;28;20030;-83
2022/06/25 02:41:09;;;;;;;8.13;3.70;;;;;;;16.64;85.90;100840.69;5013690;28;20029;-83
2022/06/25 02:43:35;;;;;;;9.27;4.03;;;;;;;16.53;86.24;100829.59;5013888;28;20451;-83
2022/06/25 02:46:00;;;;;;;6.50;4.13;;;;;;;16.60;86.18;100843.09;5012877;28;20026;-83
2022/06/25 02:48:26;;;;;;;10.93;4.17;;;;;;;16.60;86.04;100854.03;5003026;28;20036;-84
2022/06/25 02:50:51;;;;;;;12.40;4.50;;;;;;;16.53;85.83;100837.78;5011474;28;20066;-83
2022/06/25 02:53:16;;;;;;;6.97;4.20;;;;;;;16.55;85.84;100848.50;5013658;28;20462;-84
2022/06/25 03:01:28;;;;;;;5.67;4.23;;;;;;;16.59;85.87;100846.09;4935004;29;20051;-83
2022/06/25 03:03:54;;;;;;;7.20;3.90;;;;;;;16.60;86.17;100854.03;4982507;28;20038;-82
2022/06/25 03:06:20;;;;;;;5.70;4.10;;;;;;;16.61;86.02;100855.69;5012579;28;20033;-83
2022/06/25 03:08:47;;;;;;;7.67;4.33;;;;;;;16.60;85.81;100864.16;5014823;28;20034;-83
2022/06/25 03:11:13;;;;;;;6.53;3.90;;;;;;;16.55;86.30;100856.72;5011660;28;20045;-83
2022/06/25 03:13:38;;;;;;;7.97;4.00;;;;;;;16.53;86.32;100861.59;5013134;28;20390;-82
2022/06/25 03:16:05;;;;;;;6.20;4.10;;;;;;;16.51;86.57;100866.50;5014675;28;20025;-82
2022/06/25 03:18:30;;;;;;;6.77;4.70;;;;;;;16.49;86.86;100871.38;5012290;28;20038;-83
2022/06/25 03:20:56;;;;;;;6.57;4.60;;;;;;;16.44;87.08;100863.09;5012290;28;20049;-82
2022/06/25 03:23:22;;;;;;;7.20;4.87;;;;;;;16.35;87.42;100869.00;5002548;28;20463;-82
2022/06/25 03:25:48;;;;;;;8.17;5.00;;;;;;;16.28;87.77;100862.88;5005379;28;20470;-82
2022/06/25 03:28:14;;;;;;;7.20;5.07;;;;;;;16.28;87.61;100872.97;5013365;28;20026;-82
2022/06/25 03:30:40;;;;;;;8.77;5.10;;;;;;;16.18;87.82;100852.63;5013104;28;20076;-82
2022/06/25 03:33:05;;;;;;;9.30;5.13;;;;;;;16.21;88.16;100875.91;5013351;28;20053;-82
2022/06/25 03:35:30;;;;;;;6.90;5.10;;;;;;;16.11;88.25;100868.34;5012214;28;20101;-83
2022/06/25 03:37:56;;;;;;;6.97;4.90;;;;;;;16.11;88.96;100873.81;5009936;28;20429;-82
2022/06/25 03:40:22;;;;;;;7.83;5.07;;;;;;;16.08;88.97;100863.38;5011462;28;20026;-84
2022/06/25 03:42:48;;;;;;;8.53;5.00;;;;;;;16.07;89.22;100866.34;5012781;28;20048;-82
2022/06/25 03:45:13;;;;;;;8.10;5.07;;;;;;;16.01;89.17;100868.19;5010386;28;20437;-83
2022/06/25 03:47:38;;;;;;;6.57;4.73;;;;;;;16.00;89.34;100869.25;5011989;28;20382;-83
2022/06/25 03:50:04;;;;;;;8.97;5.37;;;;;;;15.95;89.75;100860.97;5009367;28;20033;-83
2022/06/25 03:52:30;;;;;;;10.07;6.20;;;;;;;15.90;89.80;100861.72;5012046;28;20114;-83
2022/06/25 03:54:55;;;;;;;8.57;5.23;;;;;;;15.94;90.17;100873.81;5013998;28;20065;-84
2022/06/25 03:57:20;;;;;;;8.40;5.30;;;;;;;15.95;90.24;100874.63;5013331;28;20026;-82
2022/06/25 03:59:46;;;;;;;8.30;5.60;;;;;;;15.91;90.75;100868.00;5014389;28;20026;-83
2022/06/25 04:02:11;;;;;;;8.63;5.53;;;;;;;15.96;90.71;100879.84;5012604;28;20038;-83
2022/06/25 04:04:36;;;;;;;7.00;5.40;;;;;;;15.99;90.69;100887.56;5012604;28;20038;-82
2022/06/25 04:07:02;;;;;;;7.53;5.50;;;;;;;16.00;90.77;100872.81;5001919;28;20042;-82
2022/06/25 04:09:27;;;;;;;7.67;5.60;;;;;;;16.06;90.91;100872.88;4994333;28;20180;-83
2022/06/25 04:11:53;;;;;;;8.90;5.87;;;;;;;16.11;91.00;100872.97;5006188;28;20042;-83
2022/06/25 04:14:18;;;;;;;7.30;5.33;;;;;;;16.18;90.93;100879.09;5013154;28;20038;-82
2022/06/25 04:16:44;;;;;;;7.67;5.97;;;;;;;16.22;91.54;100869.31;5012667;28;20028;-83
2022/06/25 04:19:09;;;;;;;8.97;5.23;;;;;;;16.26;90.88;100869.66;4995051;28;20038;-83
2022/06/25 04:21:35;;;;;;;8.83;5.20;;;;;;;16.29;90.73;100875.47;5007956;28;20382;-83
2022/06/25 04:24:00;;;;;;;6.30;5.20;;;;;;;16.34;90.71;100880.19;4999035;28;20043;-83
2022/06/25 04:26:26;;;;;;;8.83;5.13;;;;;;;16.38;90.50;100876.69;5006181;28;20037;-83
2022/06/25 04:29:03;;;;;;;8.43;5.60;;;;;;;16.44;90.75;100887.72;5012710;28;20030;-83
2022/06/25 04:31:32;;;;;;;6.83;5.30;;;;;;;16.44;90.46;100888.56;5012076;28;20492;-82
2022/06/25 04:33:58;;;;;;;9.43;5.37;;;;;;;16.45;90.14;100886.63;5011589;28;20037;-82
2022/06/25 04:36:24;;;;;;;9.37;5.67;;;;;;;16.51;90.01;100891.13;5012655;28;20028;-83
2022/06/25 04:38:50;;;;;;;7.30;5.73;;;;;;;16.52;90.82;100906.44;5007993;28;20454;-82
2022/06/25 04:41:16;;;;;;;9.43;5.03;;;;;;;16.50;90.52;100897.66;5011250;28;20022;-83
2022/06/25 04:43:42;;;;;;;8.00;5.13;;;;;;;16.55;89.99;100905.94;5011848;28;20076;-83
2022/06/25 04:46:07;;;;;;;10.07;5.23;;;;;;;16.56;90.41;100907.59;5011151;28;20433;-82
2022/06/25 04:48:33;;;;;;;8.13;5.03;;;;;;;16.61;90.30;100912.31;5012000;28;20112;-86
2022/06/25 04:50:58;;;;;;;9.50;5.40;;;;;;;16.64;90.53;100917.28;5015573;28;20076;-82
2022/06/25 04:53:23;;;;;;;8.30;5.43;;;;;;;16.70;90.32;100911.63;5014812;28;20038;-83
2022/06/25 04:55:49;;;;;;;7.93;5.40;;;;;;;16.68;90.40;100907.50;5015259;28;20114;-83
2022/06/25 04:58:14;;;;;;;7.30;5.20;;;;;;;16.85;90.23;100919.25;5015250;28;20367;-81
2022/06/25 05:00:40;;;;;;;7.33;5.37;;;;;;;16.97;89.76;100919.16;5015695;28;20040;-83
2022/06/25 05:03:06;;;;;;;10.40;5.20;;;;;;;17.11;89.67;100921.50;5017193;28;20062;-82
2022/06/25 05:05:32;;;;;;;7.87;4.60;;;;;;;17.18;89.58;100913.97;5015351;28;20067;-82
2022/06/25 05:07:57;;;;;;;6.03;4.47;;;;;;;17.28;87.98;100914.06;5014716;28;20112;-83
2022/06/25 05:10:23;;;;;;;7.07;4.23;;;;;;;17.40;86.72;100918.59;5014732;28;20026;-82
2022/06/25 05:15:33;;;;;;;5.97;3.45;;;;;;;17.56;85.20;100934.13;5013962;28;20045;-88
2022/06/25 05:17:59;;;;;;;6.63;3.93;;;;;;;17.60;85.30;100932.53;5013839;28;20073;-82
2022/06/25 05:20:25;;;;;;;5.67;3.47;;;;;;;17.64;83.49;100928.19;5014988;28;20509;-81
2022/06/25 05:22:50;;;;;;;6.23;3.70;;;;;;;17.64;84.02;100930.94;5015658;28;20521;-83
2022/06/25 05:25:16;;;;;;;5.17;3.53;;;;;;;17.65;84.05;100934.47;5014138;28;20041;-82
2022/06/25 05:27:41;;;;;;;5.20;3.50;;;;;;;17.66;84.35;100939.72;5014952;28;20041;-83
2022/06/25 05:30:07;;;;;;;5.33;3.60;;;;;;;17.65;83.43;100938.06;5014640;28;20095;-83
2022/06/25 05:32:33;;;;;;;7.30;3.80;;;;;;;17.65;83.63;100929.84;5011815;28;20048;-84
2022/06/25 05:34:58;;;;;;;8.17;3.70;;;;;;;17.72;83.20;100941.44;5015384;28;20081;-82
2022/06/25 05:37:24;;;;;;;6.40;4.03;;;;;;;17.68;82.50;100939.47;5014054;28;20046;-83
2022/06/25 05:39:50;;;;;;;7.23;3.93;;;;;;;17.69;83.16;100947.44;5012801;28;20036;-83
2022/06/25 05:42:15;;;;;;;8.10;3.70;;;;;;;17.77;82.20;100948.06;5011531;28;20096;-84
2022/06/25 05:44:41;;;;;;;7.00;3.90;;;;;;;17.78;82.46;100936.81;5014920;28;20030;-82
2022/06/25 05:47:06;;;;;;;12.10;4.23;;;;;;;18.00;82.55;100957.91;5015544;28;20042;-83
2022/06/25 05:49:32;;;;;;;6.87;3.80;;;;;;;18.14;82.39;100961.06;5015604;28;20034;-82
2022/06/25 05:51:57;;;;;;;6.57;4.10;;;;;;;18.23;81.46;100954.81;5012597;28;20038;-82
2022/06/25 05:54:22;;;;;;;7.23;3.80;;;;;;;18.31;81.43;100948.06;4999775;28;20026;-82
2022/06/25 05:56:48;;;;;;;6.00;3.27;;;;;;;18.38;79.80;100959.63;5014873;28;20030;-83
2022/06/25 05:59:13;;;;;;;7.97;3.87;;;;;;;18.29;79.20;100957.63;5009885;28;20168;-82
2022/06/25 06:01:39;;;;;;;6.30;3.23;;;;;;;18.23;79.27;100951.28;5012470;28;20116;-82
2022/06/25 06:04:05;;;;;;;8.03;3.60;;;;;;;18.39;79.89;100972.25;5007902;28;20025;-83
2022/06/25 06:06:30;;;;;;;7.90;3.50;;;;;;;18.36;79.78;100983.75;5014463;28;20045;-84
2022/06/25 06:08:56;;;;;;;4.83;3.13;;;;;;;18.32;78.76;100977.13;4997359;28;20037;-84
2022/06/25 06:11:21;;;;;;;6.10;3.10;;;;;;;18.36;78.90;100972.78;5014851;28;20030;-83
2022/06/25 06:13:46;;;;;;;5.57;3.10;;;;;;;18.39;79.53;100977.75;5011507;28;20040;-83
2022/06/25 06:16:12;;;;;;;6.43;3.07;;;;;;;18.49;78.79;100990.72;5013802;28;20157;-83
2022/06/25 06:18:37;;;;;;;5.23;2.90;;;;;;;18.51;79.28;100990.47;5012384;28;20049;-83
2022/06/25 06:21:03;;;;;;;6.68;3.65;;;;;;;18.55;78.37;100994.34;4996515;28;20370;-84
2022/06/25 06:23:28;;;;;;;7.88;3.38;;;;;;;18.66;79.89;100998.00;5014159;28;20406;-83
2022/06/25 06:25:53;;;;;;;6.38;3.35;;;;;;;18.65;78.79;100991.66;5012769;28;20034;-83
2022/06/25 06:28:19;;;;;;;9.77;3.70;;;;;;;18.61;77.25;100985.06;5013908;28;20030;-84
2022/06/25 06:30:46;;;;;;;6.20;3.40;;;;;;;18.75;77.12;100988.16;5014766;28;20037;-83
2022/06/25 06:33:12;;;;;;;7.47;3.10;;;;;;;18.74;76.98;100986.53;5002708;28;20105;-83
2022/06/25 06:35:37;;;;;;;5.53;3.10;;;;;;;18.71;75.53;100990.63;5001409;28;20113;-82
2022/06/25 06:38:02;;;;;;;8.43;3.40;;;;;;;18.90;77.58;100992.97;5015518;28;20367;-83
2022/06/25 06:40:28;;;;;;;5.37;3.20;;;;;;;18.96;74.72;100985.59;5013313;28;20065;-83
2022/06/25 06:42:55;;;;;;;5.03;3.33;;;;;;;19.00;75.85;101004.03;5010145;28;20026;-83
2022/06/25 06:45:21;;;;;;;8.15;3.40;;;;;;;19.01;76.12;100997.47;4995100;28;20486;-83
2022/06/25 06:47:47;;;;;;;8.18;3.50;;;;;;;19.01;74.71;100986.47;5009668;28;20025;-84
2022/06/25 06:50:12;;;;;;;7.40;3.25;;;;;;;18.95;75.87;100971.06;4995161;28;20034;-83
2022/06/25 06:52:38;;;;;;;6.10;3.33;;;;;;;19.14;75.52;100996.16;5009818;28;20454;-83
2022/06/25 06:55:04;;;;;;;6.28;3.33;;;;;;;19.26;76.64;100992.34;5014114;28;20114;-84
2022/06/25 06:57:31;;;;;;;6.18;3.45;;;;;;;19.33;76.14;101001.22;4999281;28;20026;-84
2022/06/25 06:59:58;;;;;;;6.05;3.30;;;;;;;19.36;74.78;100998.72;5011231;28;20029;-85
2022/06/25 07:02:25;;;;;;;9.10;3.50;;;;;;;19.33;74.08;101003.97;5006631;28;20090;-83
2022/06/25 07:04:52;;;;;;;8.75;3.30;;;;;;;19.30;76.42;101008.06;5002241;28;20092;-82
2022/06/25 07:07:17;;;;;;;7.80;4.00;;;;;;;19.26;74.78;101001.44;5012152;28;20026;-82
2022/06/25 07:09:43;;;;;;;7.93;3.53;;;;;;;19.29;74.19;101011.88;5014168;28;20104;-82
2022/06/25 07:12:08;;;;;;;3.97;2.90;;;;;;;19.31;74.16;101008.88;5003880;28;20037;-82
2022/06/25 07:14:33;;;;;;;4.88;3.05;;;;;;;19.38;74.99;101007.56;5013044;28;20060;-81
2022/06/25 07:16:59;;;;;;;10.02;3.97;;;;;;;19.53;75.36;101003.22;5012588;28;20042;-82
2022/06/25 07:19:24;;;;;;;5.18;3.58;;;;;;;19.62;74.52;100998.03;5012515;28;20022;-83
2022/06/25 07:21:49;;;;;;;6.38;3.50;;;;;;;19.78;74.47;101013.47;5011787;28;20034;-82
2022/06/25 07:24:15;;;;;;;7.00;2.88;;;;;;;19.85;73.19;101008.56;5011903;28;20529;-83
2022/06/25 07:26:40;;;;;;;6.15;2.80;;;;;;;19.72;73.12;100998.91;4995439;28;20034;-82
2022/06/25 07:29:05;;;;;;;6.78;2.70;;;;;;;19.67;73.58;101012.63;5009557;28;20446;-82
2022/06/25 07:31:31;;;;;;;3.10;2.70;;;;;;;19.65;74.36;101003.81;5013255;28;20030;-82
2022/06/25 07:33:56;;;;;;;5.95;2.90;;;;;;;19.76;74.33;101004.69;5013401;28;20489;-82
2022/06/25 07:36:21;;;;;;;6.78;3.05;;;;;;;19.98;74.15;101012.75;5013582;28;20044;-82
2022/06/25 07:38:47;;;;;;;6.35;3.08;;;;;;;19.87;72.07;101005.59;5007039;28;20033;-83
2022/06/25 07:41:12;;;;;;;4.53;2.78;;;;;;;20.03;74.17;101014.69;5010800;28;20045;-83
2022/06/25 07:43:38;;;;;;;7.68;3.30;;;;;;;20.13;72.95;101008.41;5011649;28;20022;-82
2022/06/25 07:46:04;;;;;;;4.72;3.05;;;;;;;20.22;72.88;101006.75;5005366;28;20454;-83
2022/06/25 07:48:30;;;;;;;5.57;3.25;;;;;;;20.28;72.87;101013.91;5008977;28;20041;-82
2022/06/25 07:53:39;;;;;;;4.82;2.90;;;;;;;20.47;70.78;101021.66;5012360;28;20048;-83
2022/06/25 07:56:06;;;;;;;3.70;2.40;;;;;;;20.32;72.02;101019.72;5013475;28;20045;-81
2022/06/25 07:58:33;;;;;;;4.10;2.85;;;;;;;20.22;72.41;101020.50;5013128;28;20030;-82
2022/06/25 08:00:58;;;;;;;3.05;2.50;;;;;;;20.15;71.25;101012.50;5011876;28;20034;-82
2022/06/25 08:03:23;;;;;;;5.25;3.20;;;;;;;20.01;71.24;101017.69;5008045;28;20097;-83
2022/06/25 08:05:49;;;;;;;6.20;2.85;;;;;;;20.06;71.66;101025.16;4995257;28;20038;-83
2022/06/25 08:08:14;;;;;;;5.60;2.70;;;;;;;20.14;73.04;101010.88;5011854;28;20120;-82
2022/06/25 08:10:40;;;;;;;5.13;3.00;;;;;;;20.38;71.86;101016.66;5012486;28;20041;-82
2022/06/25 08:13:06;;;;;;;6.97;2.90;;;;;;;20.40;70.10;101021.91;5011261;28;20049;-83
2022/06/25 08:15:32;;;;;;;7.60;3.10;;;;;;;20.52;72.27;101014.22;5009469;28;20058;-82
2022/06/25 08:17:58;;;;;;;5.53;2.90;;;;;;;20.38;70.98;101016.66;5004303;28;20026;-82
2022/06/25 08:20:23;;;;;;;4.00;2.50;;;;;;;20.34;70.63;101007.31;5009783;28;20073;-82
2022/06/25 08:22:51;;;;;;;5.03;2.70;;;;;;;20.32;70.28;101020.53;5012029;28;20053;-83
2022/06/25 08:25:17;;;;;;;7.45;3.33;;;;;;;20.30;70.03;101025.47;5014533;28;20041;-82
2022/06/25 08:27:52;;;;;;;7.65;3.00;;;;;;;20.20;70.61;101031.78;5015987;28;20033;-82
2022/06/25 08:30:18;;;;;;;4.53;2.90;;;;;;;20.12;71.15;101020.50;5026122;28;20076;-83
2022/06/25 08:32:44;;;;;;;7.00;2.88;;;;;;;19.99;71.80;101014.41;5015432;28;20041;-83
2022/06/25 08:35:09;;;;;;;7.78;3.10;;;;;;;20.04;71.84;101030.91;5015223;28;20068;-82
2022/06/25 08:37:48;;;;;;;4.30;2.85;;;;;;;20.01;73.51;101028.72;5015044;28;20413;-82
2022/06/25 08:40:16;;;;;;;4.22;2.72;;;;;;;19.92;73.06;101030.31;5014570;28;20079;-82
2022/06/25 08:42:42;;;;;;;4.28;3.10;;;;;;;19.89;74.04;101026.19;5017368;28;20033;-82
2022/06/25 08:45:08;;;;;;;4.20;3.03;;;;;;;19.83;73.69;101026.47;5013104;28;20042;-82
2022/06/25 08:47:34;;;;;;;6.07;2.70;;;;;;;19.76;73.43;101029.44;5015681;28;20038;-82
2022/06/25 08:50:02;;;;;;;4.63;2.70;;;;;;;19.76;74.54;101037.69;5012566;28;20088;-82
2022/06/25 08:52:28;;;;;;;6.93;2.80;;;;;;;19.69;74.14;101035.19;5017154;28;20029;-82
2022/06/25 08:54:55;;;;;;;4.97;2.80;;;;;;;19.68;74.51;101040.94;5017503;28;20371;-82
2022/06/25 08:57:21;;;;;;;3.38;2.70;;;;;;;19.71;75.64;101035.72;5016452;28;20038;-82
2022/06/25 08:59:47;;;;;;;4.43;2.70;;;;;;;19.73;74.88;101022.56;5015456;28;20076;-82
2022/06/25 09:02:12;;;;;;;3.00;2.70;;;;;;;19.97;76.21;101029.53;5016316;28;20096;-82
2022/06/25 09:04:37;;;;;;;3.22;2.50;;;;;;;20.34;78.15;101034.81;5004886;28;20429;-82
2022/06/25 09:07:14;;;;;;;6.50;2.45;;;;;;;20.45;72.07;101032.09;5004467;28;20045;-82
2022/06/25 09:09:44;;;;;;;4.15;2.38;;;;;;;20.50;72.92;101034.84;5006584;28;20025;-82
2022/06/25 09:12:13;;;;;;;4.15;2.70;;;;;;;20.47;71.61;101032.66;5015289;28;20026;-83
2022/06/25 09:14:39;;;;;;;4.72;2.70;;;;;;;20.36;72.26;101031.81;5015229;28;20052;-82
2022/06/25 09:17:09;;;;;;;2.78;2.50;;;;;;;20.38;71.74;101032.34;5015881;28;20104;-82
2022/06/25 09:19:38;;;;;;;4.07;2.53;;;;;;;20.40;72.81;101044.75;5016291;28;20069;-82
2022/06/25 09:22:05;;;;;;;5.75;2.60;;;;;;;20.29;72.32;101043.09;5011673;28;20418;-83
2022/06/25 09:24:57;;;;;;;4.35;2.70;;;;;;;20.35;72.79;101050.22;5010434;28;20072;-82
2022/06/25 09:27:28;;;;;;;5.13;2.60;;;;;;;20.31;72.83;101049.13;5015099;28;20029;-82
2022/06/25 09:29:54;;;;;;;5.85;2.60;;;;;;;20.27;72.87;101042.53;5013170;28;20096;-82
2022/06/25 09:32:19;;;;;;;4.20;2.83;;;;;;;20.31;71.75;101040.06;5015466;28;20057;-82
2022/06/25 09:34:45;;;;;;;5.18;2.78;;;;;;;20.42;73.15;101033.47;5014921;28;20417;-82
2022/06/25 09:37:25;;;;;;;7.07;2.70;;;;;;;20.60;72.53;101032.09;5014428;28;20025;-82
2022/06/25 09:39:53;;;;;;;4.65;2.75;;;;;;;20.75;73.47;101031.28;5013450;28;20030;-81
2022/06/25 09:42:25;;;;;;;5.20;2.60;;;;;;;20.72;73.20;101021.66;5014784;28;20022;-82
2022/06/25 09:45:06;;;;;;;8.57;3.30;;;;;;;20.83;71.64;101036.25;5008310;28;20120;-82
2022/06/25 09:47:37;;;;;;;5.00;2.63;;;;;;;20.76;69.90;101029.38;5013689;28;20474;-83
2022/06/25 09:50:04;;;;;;;4.18;2.50;;;;;;;20.70;69.15;101043.16;5015518;28;20055;-82
2022/06/25 09:52:30;;;;;;;5.85;2.58;;;;;;;20.62;68.89;101032.66;5015114;28;20524;-82
2022/06/25 09:54:55;;;;;;;7.72;2.90;;;;;;;20.62;69.66;101038.16;5007891;28;20038;-81
2022/06/25 09:57:21;;;;;;;4.53;2.55;;;;;;;20.63;70.34;101041.72;5015127;28;20034;-82
2022/06/25 09:59:50;;;;;;;5.03;2.50;;;;;;;20.65;71.28;101036.78;5015197;28;20075;-81
2022/06/25 10:02:16;;;;;;;4.07;2.45;;;;;;;20.61;72.15;101036.50;5011984;28;20034;-82
2022/06/25 10:04:44;;;;;;;3.30;2.25;;;;;;;20.69;72.21;101043.44;5011819;28;20382;-81
2022/06/25 10:07:10;;;;;;;5.10;2.63;;;;;;;20.74;70.33;101029.66;5006215;28;20068;-82
2022/06/25 10:09:40;;;;;;;3.50;2.70;;;;;;;20.81;70.22;101051.41;5012597;28;20088;-81
2022/06/25 10:12:06;;;;;;;5.40;2.72;;;;;;;20.80;69.93;101034.06;5013139;28;20026;-82
2022/06/25 10:14:34;;;;;;;5.60;2.60;;;;;;;20.77;72.17;101036.53;5015970;28;20041;-82
2022/06/25 10:17:00;;;;;;;3.67;2.70;;;;;;;20.71;69.65;101043.97;5011752;28;20025;-82
2022/06/25 10:19:28;;;;;;;3.45;2.40;;;;;;;20.68;71.11;101048.09;5014279;28;20022;-82
2022/06/25 10:21:54;;;;;;;4.25;2.13;;;;;;;20.78;69.70;101047.28;5006968;28;20023;-81
2022/06/25 10:24:20;;;;;;;3.20;2.03;;;;;;;21.03;69.99;101049.19;5008085;28;20069;-82
2022/06/25 10:26:46;;;;;;;3.08;2.03;;;;;;;21.14;67.70;101047.22;5009353;28;20381;-83
2022/06/25 10:29:24;;;;;;;2.90;1.90;;;;;;;21.27;69.70;101051.34;5013168;28;20109;-81
2022/06/25 10:31:50;;;;;;;3.22;2.10;;;;;;;21.27;66.70;101039.50;5013989;28;20030;-82
2022/06/25 10:34:15;;;;;;;2.75;2.10;;;;;;;21.29;66.58;101043.63;5012793;28;20421;-81
2022/06/25 10:36:49;;;;;;;2.95;2.08;;;;;;;21.40;67.75;101041.66;5013748;28;20026;-82
2022/06/25 10:39:27;;;;;;;2.88;1.90;;;;;;;21.52;66.27;101044.13;5013279;28;20040;-82
2022/06/25 10:45:01;;;;;;;3.55;2.20;;;;;;;21.71;67.65;101041.59;4999023;28;20156;-82
2022/06/25 10:47:58;;;;;;;4.80;2.30;;;;;;;21.73;64.22;101031.94;5012475;28;20377;-82
2022/06/25 10:50:25;;;;;;;4.65;2.10;;;;;;;21.79;64.38;101037.44;5006911;28;20049;-81
2022/06/25 10:53:02;;;;;;;6.30;2.30;;;;;;;21.91;65.42;101040.69;5004083;28;20112;-82
2022/06/25 10:55:29;;;;;;;4.63;2.25;;;;;;;21.88;64.24;101041.22;5012724;28;20385;-82
2022/06/25 10:58:14;;;;;;;5.50;2.00;;;;;;;21.94;65.07;101045.63;5013463;28;20409;-81
2022/06/25 11:00:49;;;;;;;2.42;1.90;;;;;;;21.99;63.79;101050.28;5014137;28;20026;-82
2022/06/25 11:03:15;;;;;;;3.83;2.58;;;;;;;22.34;62.84;101038.22;5014772;28;20032;-82
2022/06/25 11:05:45;;;;;;;2.38;1.60;;;;;;;22.64;59.86;101022.53;5010661;28;20026;-82
2022/06/25 11:08:11;;;;;;;2.13;1.50;;;;;;;22.73;60.21;101020.81;5004960;28;20026;-82
2022/06/25 11:10:37;;;;;;;2.50;1.90;;;;;;;22.72;58.50;101019.16;5012826;28;20037;-83
2022/06/25 11:13:03;;;;;;;3.15;1.60;;;;;;;22.78;58.72;101011.66;5012911;28;20041;-82
2022/06/25 11:15:58;;;;;;;1.98;1.52;;;;;;;22.86;57.93;101010.19;5012632;28;20401;-81
2022/06/25 11:18:23;;;;;;;4.63;2.25;;;;;;;22.92;58.91;101015.38;4997438;28;20045;-83
2022/06/25 11:20:49;;;;;;;3.17;1.60;;;;;;;23.13;57.46;101017.97;5012252;28;20370;-82
2022/06/25 11:23:16;;;;;;;2.33;1.60;;;;;;;23.08;56.66;101002.25;5013313;28;20046;-83
2022/06/25 11:28:49;;;;;;;1.67;1.15;;;;;;;23.15;56.07;101012.16;5012761;28;20135;-81
2022/06/25 11:31:15;;;;;;;4.82;1.70;;;;;;;23.63;55.41;101017.66;4998772;28;20061;-83
2022/06/25 11:33:43;;;;;;;1.75;1.60;;;;;;;23.98;55.77;101020.31;5010029;28;20037;-82
2022/06/25 11:36:09;;;;;;;1.98;1.42;;;;;;;23.89;52.96;101020.13;5012979;28;20033;-83
2022/06/25 11:38:34;;;;;;;1.70;1.23;;;;;;;24.03;53.75;101015.53;5005434;28;20541;-82
2022/06/25 11:41:00;;;;;;;1.17;1.10;;;;;;;24.07;55.19;101022.09;5012097;28;20048;-83
2022/06/25 11:43:27;;;;;;;2.67;1.60;;;;;;;24.08;52.53;101025.69;5014161;28;20092;-83
2022/06/25 11:45:55;;;;;;;1.90;1.00;;;;;;;24.10;52.33;101035.34;5013582;28;20029;-83
2022/06/25 11:48:26;;;;;;;1.50;1.20;;;;;;;24.28;55.49;101039.22;5011306;28;20112;-83